createdAt,value
2022-08-17T00:00:59.274Z,1004.49
2022-08-17T00:01:59.308Z,1004.50
2022-08-17T00:02:59.227Z,1004.49
2022-08-17T00:03:59.243Z,1004.52
2022-08-17T00:04:59.261Z,1004.51
2022-08-17T00:05:59.266Z,1004.50
2022-08-17T00:06:59.282Z,1004.50
2022-08-17T00:07:59.300Z,1004.54
2022-08-17T00:08:59.314Z,1004.51
2022-08-17T00:09:59.320Z,1004.50
2022-08-17T00:10:59.340Z,1004.46
2022-08-17T00:12:40.909Z,1004.48
2022-08-17T00:12:59.369Z,1004.46
2022-08-17T00:13:59.371Z,1004.47
2022-08-17T00:14:59.393Z,1004.48
2022-08-17T00:15:59.404Z,1004.53
2022-08-17T00:16:59.411Z,1004.54
2022-08-17T00:17:59.428Z,1004.51
2022-08-17T00:19:07.449Z,1004.51
2022-08-17T00:19:59.450Z,1004.50
2022-08-17T00:20:59.468Z,1004.53
2022-08-17T00:22:32.747Z,1004.47
2022-08-17T00:22:59.486Z,1004.52
2022-08-17T00:23:59.504Z,1004.54
2022-08-17T00:24:59.521Z,1004.57
2022-08-17T00:25:59.533Z,1004.55
2022-08-17T00:26:59.547Z,1004.54
2022-08-17T00:27:59.551Z,1004.57
2022-08-17T00:28:59.573Z,1004.55
2022-08-17T00:29:59.582Z,1004.55
2022-08-17T00:30:59.598Z,1004.54
2022-08-17T00:31:59.601Z,1004.54
2022-08-17T00:33:14.541Z,1004.54
2022-08-17T00:33:59.627Z,1004.56
2022-08-17T00:34:59.646Z,1004.53
2022-08-17T00:35:59.660Z,1004.52
2022-08-17T00:36:59.665Z,1004.54
2022-08-17T00:37:59.678Z,1004.54
2022-08-17T00:38:59.697Z,1004.56
2022-08-17T00:39:59.789Z,1004.58
2022-08-17T00:40:59.723Z,1004.58
2022-08-17T00:41:59.735Z,1004.57
2022-08-17T00:42:59.750Z,1004.62
2022-08-17T00:43:59.761Z,1004.59
2022-08-17T00:44:59.776Z,1004.57
2022-08-17T00:45:59.787Z,1004.58
2022-08-17T00:46:59.805Z,1004.55
2022-08-17T00:47:59.807Z,1004.58
2022-08-17T00:48:59.826Z,1004.58
2022-08-17T00:49:59.840Z,1004.57
2022-08-17T00:50:59.849Z,1004.54
2022-08-17T00:52:42.423Z,1004.51
2022-08-17T00:53:42.422Z,1004.53
2022-08-17T00:54:42.642Z,1004.53
2022-08-17T00:55:42.440Z,1004.51
2022-08-17T00:57:25.002Z,1004.53
2022-08-17T01:00:15.345Z,1004.55
2022-08-17T01:03:20.535Z,1004.55
2022-08-17T01:09:01.781Z,1004.58
2022-08-17T01:10:01.799Z,1004.61
2022-08-17T01:11:02.118Z,1004.58
2022-08-17T01:12:01.842Z,1004.62
2022-08-17T01:13:01.828Z,1004.58
2022-08-17T01:14:01.843Z,1004.59
2022-08-17T01:15:01.853Z,1004.60
2022-08-17T01:16:01.867Z,1004.60
2022-08-17T01:17:01.887Z,1004.61
2022-08-17T01:18:01.897Z,1004.59
2022-08-17T01:19:02.922Z,1004.58
2022-08-17T01:20:01.923Z,1004.59
2022-08-17T01:21:01.928Z,1004.60
2022-08-17T01:22:02.953Z,1004.58
2022-08-17T01:23:01.955Z,1004.59
2022-08-17T01:24:01.967Z,1004.58
2022-08-17T01:25:01.977Z,1004.61
2022-08-17T01:26:01.992Z,1004.58
2022-08-17T01:27:02.009Z,1004.61
2022-08-17T01:28:02.016Z,1004.59
2022-08-17T01:29:02.028Z,1004.59
2022-08-17T01:30:59.665Z,1004.66
2022-08-17T01:35:13.064Z,1004.67
2022-08-17T01:36:13.080Z,1004.67
2022-08-17T01:37:13.089Z,1004.69
2022-08-17T01:38:13.092Z,1004.72
2022-08-17T01:39:13.106Z,1004.74
2022-08-17T01:40:13.203Z,1004.72
2022-08-17T01:41:13.131Z,1004.74
2022-08-17T01:42:13.148Z,1004.73
2022-08-17T01:43:13.160Z,1004.73
2022-08-17T01:44:13.174Z,1004.67
2022-08-17T01:45:13.184Z,1004.70
2022-08-17T01:46:13.197Z,1004.70
2022-08-17T01:47:13.209Z,1004.68
2022-08-17T01:48:13.221Z,1004.68
2022-08-17T01:49:13.233Z,1004.64
2022-08-17T01:50:13.248Z,1004.69
2022-08-17T01:51:13.253Z,1004.68
2022-08-17T01:52:13.269Z,1004.64
2022-08-17T01:53:13.278Z,1004.66
2022-08-17T01:54:13.287Z,1004.66
2022-08-17T01:55:13.309Z,1004.66
2022-08-17T01:56:13.321Z,1004.68
2022-08-17T01:57:13.326Z,1004.65
2022-08-17T01:58:13.338Z,1004.64
2022-08-17T01:59:13.349Z,1004.61
2022-08-17T02:00:13.371Z,1004.63
2022-08-17T02:01:13.420Z,1004.62
2022-08-17T02:02:13.394Z,1004.63
2022-08-17T02:03:13.398Z,1004.67
2022-08-17T02:04:13.424Z,1004.65
2022-08-17T02:05:13.433Z,1004.66
2022-08-17T02:06:27.137Z,1004.63
2022-08-17T02:07:13.452Z,1004.62
2022-08-17T02:08:19.935Z,1004.60
2022-08-17T02:09:16.547Z,1004.60
2022-08-17T02:10:20.187Z,1004.62
2022-08-17T02:11:13.500Z,1004.62
2022-08-17T02:12:39.158Z,1004.63
2022-08-17T02:13:13.523Z,1004.61
2022-08-17T02:14:13.541Z,1004.59
2022-08-17T02:15:13.545Z,1004.59
2022-08-17T02:16:13.558Z,1004.63
2022-08-17T02:17:13.576Z,1004.60
2022-08-17T02:18:13.588Z,1004.61
2022-08-17T02:19:13.593Z,1004.59
2022-08-17T02:20:13.613Z,1004.57
2022-08-17T02:21:13.627Z,1004.59
2022-08-17T02:22:13.636Z,1004.60
2022-08-17T02:23:13.644Z,1004.60
2022-08-17T02:24:13.662Z,1004.61
2022-08-17T02:25:13.668Z,1004.61
2022-08-17T02:26:25.738Z,1004.59
2022-08-17T02:27:13.690Z,1004.58
2022-08-17T02:28:13.705Z,1004.57
2022-08-17T02:29:13.715Z,1004.57
2022-08-17T02:30:59.056Z,1004.56
2022-08-17T02:31:13.739Z,1004.63
2022-08-17T02:32:13.759Z,1004.60
2022-08-17T02:33:13.764Z,1004.60
2022-08-17T02:34:13.781Z,1004.58
2022-08-17T02:35:13.789Z,1004.58
2022-08-17T02:36:13.807Z,1004.57
2022-08-17T02:37:13.812Z,1004.56
2022-08-17T02:38:13.822Z,1004.51
2022-08-17T02:39:13.846Z,1004.52
2022-08-17T02:40:13.949Z,1004.49
2022-08-17T02:41:13.869Z,1004.51
2022-08-17T02:42:13.878Z,1004.50
2022-08-17T02:43:13.892Z,1004.54
2022-08-17T02:44:13.905Z,1004.50
2022-08-17T02:45:13.915Z,1004.51
2022-08-17T02:46:13.928Z,1004.54
2022-08-17T02:47:13.932Z,1004.53
2022-08-17T02:48:13.945Z,1004.56
2022-08-17T02:49:13.965Z,1004.55
2022-08-17T02:50:13.974Z,1004.52
2022-08-17T02:51:13.984Z,1004.48
2022-08-17T02:52:13.991Z,1004.51
2022-08-17T02:53:14.004Z,1004.49
2022-08-17T02:54:40.154Z,1004.51
2022-08-17T02:55:14.028Z,1004.49
2022-08-17T02:56:14.047Z,1004.50
2022-08-17T02:57:14.054Z,1004.51
2022-08-17T02:58:14.063Z,1004.45
2022-08-17T02:59:14.075Z,1004.43
2022-08-17T03:00:14.088Z,1004.44
2022-08-17T03:01:14.170Z,1004.45
2022-08-17T03:02:14.112Z,1004.44
2022-08-17T03:03:14.123Z,1004.46
2022-08-17T03:04:14.144Z,1004.47
2022-08-17T03:05:14.154Z,1004.46
2022-08-17T03:06:14.165Z,1004.45
2022-08-17T03:07:14.181Z,1004.42
2022-08-17T03:08:14.189Z,1004.40
2022-08-17T03:09:14.197Z,1004.42
2022-08-17T03:10:14.207Z,1004.42
2022-08-17T03:11:14.224Z,1004.38
2022-08-17T03:12:14.240Z,1004.34
2022-08-17T03:13:14.244Z,1004.33
2022-08-17T03:14:14.262Z,1004.38
2022-08-17T03:15:14.272Z,1004.35
2022-08-17T03:16:14.279Z,1004.38
2022-08-17T03:17:56.844Z,1004.36
2022-08-17T03:18:56.849Z,1004.37
2022-08-17T03:20:56.874Z,1004.42
2022-08-17T03:21:56.892Z,1004.42
2022-08-17T03:23:01.853Z,1004.44
2022-08-17T03:23:56.908Z,1004.43
2022-08-17T03:24:56.927Z,1004.44
2022-08-17T03:25:56.937Z,1004.44
2022-08-17T03:26:56.944Z,1004.44
2022-08-17T03:27:56.962Z,1004.44
2022-08-17T03:28:56.967Z,1004.46
2022-08-17T03:29:56.986Z,1004.46
2022-08-17T03:30:56.990Z,1004.45
2022-08-17T03:31:57.002Z,1004.43
2022-08-17T03:32:57.013Z,1004.42
2022-08-17T03:33:57.027Z,1004.41
2022-08-17T03:34:57.039Z,1004.45
2022-08-17T03:35:57.061Z,1004.42
2022-08-17T03:36:57.060Z,1004.46
2022-08-17T03:38:00.399Z,1004.45
2022-08-17T03:38:57.091Z,1004.47
2022-08-17T03:39:57.181Z,1004.44
2022-08-17T03:40:59.784Z,1004.45
2022-08-17T03:41:57.127Z,1004.49
2022-08-17T03:42:57.133Z,1004.47
2022-08-17T03:43:57.151Z,1004.47
2022-08-17T03:44:57.153Z,1004.43
2022-08-17T03:45:57.177Z,1004.44
2022-08-17T03:46:57.179Z,1004.48
2022-08-17T03:47:57.191Z,1004.46
2022-08-17T03:48:57.200Z,1004.47
2022-08-17T03:49:57.217Z,1004.49
2022-08-17T03:50:57.231Z,1004.45
2022-08-17T03:51:57.246Z,1004.48
2022-08-17T03:52:57.440Z,1004.50
2022-08-17T03:53:57.269Z,1004.48
2022-08-17T03:54:57.278Z,1004.48
2022-08-17T03:55:57.293Z,1004.52
2022-08-17T03:56:57.295Z,1004.49
2022-08-17T03:57:57.308Z,1004.46
2022-08-17T03:58:57.318Z,1004.47
2022-08-17T03:59:57.329Z,1004.45
2022-08-17T04:00:57.342Z,1004.46
2022-08-17T04:01:57.361Z,1004.41
2022-08-17T04:02:57.373Z,1004.40
2022-08-17T04:03:57.384Z,1004.40
2022-08-17T04:04:57.390Z,1004.41
2022-08-17T04:05:57.399Z,1004.42
2022-08-17T04:06:57.413Z,1004.38
2022-08-17T04:07:57.431Z,1004.45
2022-08-17T04:08:57.436Z,1004.45
2022-08-17T04:09:57.455Z,1004.48
2022-08-17T04:10:57.468Z,1004.50
2022-08-17T04:11:57.476Z,1004.53
2022-08-17T04:12:57.482Z,1004.54
2022-08-17T04:13:57.500Z,1004.54
2022-08-17T04:14:57.513Z,1004.50
2022-08-17T04:15:57.518Z,1004.55
2022-08-17T04:16:57.529Z,1004.60
2022-08-17T04:17:57.544Z,1004.59
2022-08-17T04:18:57.559Z,1004.59
2022-08-17T04:19:57.576Z,1004.63
2022-08-17T04:20:57.577Z,1004.64
2022-08-17T04:21:57.593Z,1004.59
2022-08-17T04:22:57.605Z,1004.61
2022-08-17T04:23:57.609Z,1004.64
2022-08-17T04:24:57.622Z,1004.61
2022-08-17T04:25:57.640Z,1004.64
2022-08-17T04:26:57.645Z,1004.64
2022-08-17T04:27:57.663Z,1004.64
2022-08-17T04:28:57.676Z,1004.62
2022-08-17T04:29:57.679Z,1004.67
2022-08-17T04:30:57.691Z,1004.64
2022-08-17T04:31:57.704Z,1004.65
2022-08-17T04:33:19.195Z,1004.63
2022-08-17T04:33:57.734Z,1004.68
2022-08-17T04:34:57.738Z,1004.63
2022-08-17T04:35:57.747Z,1004.64
2022-08-17T04:36:57.768Z,1004.66
2022-08-17T04:37:57.770Z,1004.69
2022-08-17T04:38:58.357Z,1004.68
2022-08-17T04:40:00.754Z,1004.70
2022-08-17T04:40:57.815Z,1004.77
2022-08-17T04:41:57.826Z,1004.73
2022-08-17T04:43:00.943Z,1004.77
2022-08-17T04:43:57.841Z,1004.78
2022-08-17T04:44:57.852Z,1004.74
2022-08-17T04:45:57.869Z,1004.79
2022-08-17T04:46:57.884Z,1004.78
2022-08-17T04:47:57.898Z,1004.80
2022-08-17T04:48:57.898Z,1004.81
2022-08-17T04:49:57.919Z,1004.77
2022-08-17T04:50:57.923Z,1004.79
2022-08-17T04:52:00.145Z,1004.80
2022-08-17T04:52:58.336Z,1004.80
2022-08-17T04:53:57.967Z,1004.77
2022-08-17T04:54:57.970Z,1004.82
2022-08-17T04:55:57.979Z,1004.78
2022-08-17T04:56:58.000Z,1004.88
2022-08-17T04:57:58.005Z,1004.84
2022-08-17T04:58:58.029Z,1004.94
2022-08-17T04:59:58.039Z,1004.87
2022-08-17T05:00:58.123Z,1004.92
2022-08-17T05:01:58.057Z,1004.90
2022-08-17T05:02:58.063Z,1004.87
2022-08-17T05:03:58.074Z,1004.89
2022-08-17T05:04:58.085Z,1004.89
2022-08-17T05:05:58.097Z,1004.87
2022-08-17T05:06:58.123Z,1004.88
2022-08-17T05:07:58.120Z,1004.92
2022-08-17T05:08:58.138Z,1004.89
2022-08-17T05:09:58.144Z,1004.92
2022-08-17T05:10:58.154Z,1004.90
2022-08-17T05:11:58.175Z,1004.89
2022-08-17T05:12:58.189Z,1004.93
2022-08-17T05:13:58.191Z,1004.91
2022-08-17T05:14:58.238Z,1004.94
2022-08-17T05:15:58.221Z,1004.93
2022-08-17T05:16:58.230Z,1004.97
2022-08-17T05:17:58.239Z,1004.97
2022-08-17T05:18:58.259Z,1005.01
2022-08-17T05:19:58.269Z,1005.00
2022-08-17T05:20:58.273Z,1005.02
2022-08-17T05:21:58.293Z,1005.01
2022-08-17T05:22:58.298Z,1005.00
2022-08-17T05:23:58.311Z,1005.02
2022-08-17T05:24:58.328Z,1005.03
2022-08-17T05:25:58.342Z,1005.06
2022-08-17T05:27:02.571Z,1005.02
2022-08-17T05:27:58.359Z,1005.07
2022-08-17T05:29:00.414Z,1005.05
2022-08-17T05:29:58.382Z,1005.07
2022-08-17T05:30:58.400Z,1005.06
2022-08-17T05:31:58.414Z,1005.07
2022-08-17T05:32:58.427Z,1005.08
2022-08-17T05:33:58.433Z,1005.06
2022-08-17T05:34:58.455Z,1005.11
2022-08-17T05:35:58.463Z,1005.09
2022-08-17T05:36:58.474Z,1005.11
2022-08-17T05:37:58.477Z,1005.12
2022-08-17T05:38:58.501Z,1005.10
2022-08-17T05:39:58.550Z,1005.12
2022-08-17T05:40:58.522Z,1005.07
2022-08-17T05:41:58.527Z,1005.12
2022-08-17T05:42:58.543Z,1005.11
2022-08-17T05:43:58.552Z,1005.14
2022-08-17T05:44:58.565Z,1005.16
2022-08-17T05:45:58.584Z,1005.16
2022-08-17T05:46:58.596Z,1005.13
2022-08-17T06:09:49.666Z,1005.24
2022-08-17T06:10:49.678Z,1005.26
2022-08-17T06:11:53.425Z,1005.25
2022-08-17T06:12:49.813Z,1005.26
2022-08-17T06:13:49.711Z,1005.29
2022-08-17T06:14:49.726Z,1005.30
2022-08-17T06:15:49.740Z,1005.29
2022-08-17T06:16:49.745Z,1005.30
2022-08-17T06:19:27.418Z,1005.30
2022-08-17T06:20:27.512Z,1005.30
2022-08-17T06:21:30.427Z,1005.36
2022-08-17T06:22:27.466Z,1005.35
2022-08-17T06:23:27.465Z,1005.32
2022-08-17T06:24:27.512Z,1005.32
2022-08-17T06:25:27.501Z,1005.34
2022-08-17T06:26:38.561Z,1005.35
2022-08-17T06:27:27.526Z,1005.33
2022-08-17T06:28:27.532Z,1005.36
2022-08-17T06:29:27.542Z,1005.34
2022-08-17T06:30:27.711Z,1005.33
2022-08-17T06:31:27.575Z,1005.35
2022-08-17T06:32:27.588Z,1005.36
2022-08-17T06:33:27.601Z,1005.36
2022-08-17T06:34:27.606Z,1005.39
2022-08-17T06:35:31.769Z,1005.40
2022-08-17T06:36:27.630Z,1005.35
2022-08-17T06:37:27.644Z,1005.38
2022-08-17T06:38:37.531Z,1005.36
2022-08-17T06:39:27.751Z,1005.32
2022-08-17T06:40:27.731Z,1005.30
2022-08-17T06:41:30.723Z,1005.30
2022-08-17T06:42:54.909Z,1005.31
2022-08-17T06:43:27.721Z,1005.29
2022-08-17T06:44:43.262Z,1005.36
2022-08-17T06:45:27.746Z,1005.32
2022-08-17T06:46:27.764Z,1005.29
2022-08-17T06:47:28.796Z,1005.33
2022-08-17T06:48:27.789Z,1005.28
2022-08-17T06:49:27.799Z,1005.28
2022-08-17T06:50:27.816Z,1005.31
2022-08-17T06:51:27.822Z,1005.26
2022-08-17T06:52:45.415Z,1005.26
2022-08-17T06:53:27.848Z,1005.23
2022-08-17T06:54:27.865Z,1005.23
2022-08-17T06:55:27.876Z,1005.27
2022-08-17T06:56:54.136Z,1005.27
2022-08-17T06:57:27.899Z,1005.26
2022-08-17T06:58:29.779Z,1005.30
2022-08-17T06:59:30.484Z,1005.32
2022-08-17T07:00:27.992Z,1005.32
2022-08-17T07:01:28.070Z,1005.37
2022-08-17T07:02:29.060Z,1005.36
2022-08-17T07:03:27.984Z,1005.39
2022-08-17T07:04:27.989Z,1005.39
2022-08-17T07:06:10.551Z,1005.38
2022-08-17T07:07:10.562Z,1005.32
2022-08-17T07:08:10.575Z,1005.33
2022-08-17T07:09:12.002Z,1005.29
2022-08-17T07:10:10.608Z,1005.35
2022-08-17T07:11:10.622Z,1005.36
2022-08-17T07:14:39.279Z,1005.32
2022-08-17T07:15:35.858Z,1005.32
2022-08-17T07:16:35.876Z,1005.32
2022-08-17T07:17:47.272Z,1005.28
2022-08-17T07:18:35.904Z,1005.28
2022-08-17T07:22:59.638Z,1005.23
2022-08-17T07:24:34.446Z,1005.26
2022-08-17T07:25:34.459Z,1005.23
2022-08-17T07:26:34.465Z,1005.26
2022-08-17T07:27:34.477Z,1005.23
2022-08-17T07:28:34.500Z,1005.23
2022-08-17T07:29:34.705Z,1005.22
2022-08-17T07:30:37.140Z,1005.24
2022-08-17T07:31:34.529Z,1005.19
2022-08-17T07:32:34.550Z,1005.21
2022-08-17T07:33:34.561Z,1005.20
2022-08-17T07:34:34.572Z,1005.22
2022-08-17T07:35:40.883Z,1005.22
2022-08-17T07:40:43.835Z,1005.23
2022-08-17T07:44:54.766Z,1005.20
2022-08-17T07:54:35.004Z,1005.36
2022-08-17T07:55:35.077Z,1005.31
2022-08-17T07:56:35.029Z,1005.36
2022-08-17T07:57:35.053Z,1005.36
2022-08-17T08:10:12.602Z,1005.33
2022-08-17T08:11:12.622Z,1005.35
2022-08-17T08:31:56.071Z,1005.50
2022-08-17T08:32:57.694Z,1005.46
2022-08-17T08:45:03.911Z,1005.65
2022-08-17T08:45:58.583Z,1005.68
2022-08-17T08:46:58.599Z,1005.74
2022-08-17T08:47:58.611Z,1005.68
2022-08-17T08:49:00.160Z,1005.73
2022-08-17T19:43:49.853Z,1003.84
2022-08-17T19:44:49.875Z,1003.85
2022-08-17T19:45:49.889Z,1003.85
2022-08-17T19:46:50.559Z,1003.89
2022-08-17T19:48:04.534Z,1003.87
2022-08-17T19:48:49.927Z,1003.87
2022-08-17T19:49:49.940Z,1003.87
2022-08-17T19:50:49.963Z,1003.85
2022-08-17T19:51:49.977Z,1003.87
2022-08-17T19:52:49.983Z,1003.87
2022-08-17T19:54:07.002Z,1003.89
2022-08-17T19:54:50.013Z,1003.87
2022-08-17T19:55:50.036Z,1003.86
2022-08-17T19:56:50.052Z,1003.84
